Time;durP1;ratioP1;P1;durP2;ratioP2;P2;SDS_P1;SDS_P2;PMS_P1;PMS_P2;Temp;Humidity;BMP_temperature;BMP_pressure;BME280_temperature;BME280_humidity;BME280_pressure;Samples;Min_cycle;Max_cycle;Signal;HPM_P1;HPM_P2
2022/06/26 00:03:46;;;;;;;2.13;1.30;;;17.60;99.90;;;;;;21077532;28;20067;-75
2022/06/26 00:13:48;;;;;;;8.30;1.50;;;17.60;99.90;;;;;;21042080;28;20044;-75
2022/06/26 00:23:49;;;;;;;8.00;2.60;;;17.40;99.90;;;;;;21060084;28;20048;-77
2022/06/26 00:33:50;;;;;;;2.80;1.50;;;16.80;99.90;;;;;;21076795;28;20036;-77
2022/06/26 00:43:52;;;;;;;2.57;1.40;;;16.90;99.90;;;;;;21077782;28;20038;-78
2022/06/26 00:53:54;;;;;;;2.55;1.75;;;16.90;99.90;;;;;;21083607;28;20032;-77
2022/06/26 01:03:55;;;;;;;4.87;1.50;;;17.10;99.90;;;;;;21100690;28;20039;-79
2022/06/26 01:13:57;;;;;;;;;;;17.10;99.90;;;;;;21095804;28;20113;-78
2022/06/26 01:23:58;;;;;;;3.17;1.48;;;17.00;99.90;;;;;;21086786;28;19908;-77
2022/06/26 01:34:02;;;;;;;;;;;17.00;99.90;;;;;;21104650;28;20112;-76
2022/06/26 01:44:07;;;;;;;5.90;2.65;;;17.00;99.90;;;;;;21096327;28;20336;-79
2022/06/26 01:54:08;;;;;;;4.25;1.58;;;16.70;99.90;;;;;;21103906;28;20032;-79
2022/06/26 02:04:12;;;;;;;3.13;2.03;;;16.80;99.90;;;;;;21096550;28;20040;-79
2022/06/26 02:14:14;;;;;;;6.90;1.52;;;16.50;99.90;;;;;;21091798;28;20092;-77
2022/06/26 02:24:19;;;;;;;2.08;1.42;;;16.40;99.90;;;;;;21078209;28;20036;-78
2022/06/26 02:34:20;;;;;;;2.63;1.67;;;16.50;99.90;;;;;;21076438;28;20038;-78
2022/06/26 02:44:21;;;;;;;1.93;1.70;;;16.40;99.90;;;;;;21092886;28;20065;-78
2022/06/26 02:54:23;;;;;;;5.65;1.83;;;16.20;99.90;;;;;;21077029;28;20525;-78
2022/06/26 03:04:24;;;;;;;4.67;2.63;;;16.00;99.90;;;;;;21072873;28;20040;-78
2022/06/26 03:14:25;;;;;;;4.93;2.40;;;15.50;99.90;;;;;;21088898;28;20032;-78
2022/06/26 03:24:27;;;;;;;5.10;2.40;;;15.30;99.90;;;;;;21075521;28;20047;-79
2022/06/26 03:34:28;;;;;;;4.33;2.60;;;15.50;99.90;;;;;;21078055;28;20060;-79
2022/06/26 03:44:34;;;;;;;4.05;2.08;;;15.60;99.90;;;;;;21078677;28;20036;-79
2022/06/26 03:54:35;;;;;;;2.97;1.97;;;15.60;99.90;;;;;;21075926;28;20098;-78
2022/06/26 04:04:36;;;;;;;2.83;1.73;;;15.70;99.90;;;;;;21072321;28;20036;-78
2022/06/26 04:14:38;;;;;;;4.22;1.65;;;15.90;99.90;;;;;;21056475;28;20502;-78
2022/06/26 04:24:39;;;;;;;4.73;1.90;;;15.90;99.90;;;;;;21068307;28;20131;-78
2022/06/26 04:34:40;;;;;;;3.43;1.97;;;16.20;99.90;;;;;;21068839;28;20047;-79
2022/06/26 04:44:41;;;;;;;7.27;3.60;;;16.50;99.90;;;;;;21072867;28;20036;-79
2022/06/26 04:54:43;;;;;;;3.33;1.57;;;16.50;99.90;;;;;;21082089;28;20044;-79
2022/06/26 05:04:45;;;;;;;5.10;2.85;;;16.50;99.90;;;;;;21072852;28;20039;-79
2022/06/26 05:15:05;;;;;;;3.28;2.25;;;17.10;99.90;;;;;;21087409;28;20028;-79
2022/06/26 05:25:17;;;;;;;4.22;2.90;;;17.60;99.90;;;;;;21064545;28;20410;-77
2022/06/26 05:35:19;;;;;;;4.82;3.03;;;18.00;99.90;;;;;;21072808;22;20048;-80
2022/06/26 05:45:21;;;;;;;5.93;3.75;;;18.20;99.90;;;;;;20973379;28;20036;-79
2022/06/26 05:55:41;;;;;;;7.20;3.10;;;18.20;99.90;;;;;;21023297;28;20040;-78
2022/06/26 06:06:09;;;;;;;4.43;3.92;;;18.00;99.90;;;;;;21006510;28;20048;-79
2022/06/26 06:16:10;;;;;;;7.30;3.40;;;17.90;99.90;;;;;;21011091;28;20063;-80
2022/06/26 06:26:12;;;;;;;2.87;2.43;;;17.70;99.90;;;;;;21026511;28;20579;-78
2022/06/26 06:36:14;;;;;;;4.47;2.78;;;18.40;99.90;;;;;;21002918;28;20318;-78
2022/06/26 06:46:15;;;;;;;5.90;2.00;;;19.20;99.90;;;;;;21056251;28;20040;-79
2022/06/26 06:56:23;;;;;;;4.78;2.00;;;19.90;99.90;;;;;;21028841;28;20490;-79
2022/06/26 07:06:25;;;;;;;4.30;2.90;;;19.60;99.90;;;;;;21034041;28;20055;-77
2022/06/26 07:16:26;;;;;;;2.67;1.80;;;19.50;99.90;;;;;;21052283;28;20044;-78
2022/06/26 07:26:27;;;;;;;1.77;0.87;;;20.90;99.90;;;;;;21008804;28;20709;-78
2022/06/26 07:36:30;;;;;;;13.52;8.88;;;21.20;99.90;;;;;;20985254;28;20059;-78
2022/06/26 07:46:31;;;;;;;2.08;1.10;;;20.80;99.90;;;;;;21014369;28;20044;-76
2022/06/26 07:56:33;;;;;;;1.65;1.30;;;20.90;99.90;;;;;;21035231;28;20032;-77
2022/06/26 08:06:34;;;;;;;3.17;1.00;;;20.50;99.90;;;;;;21025065;28;20040;-76
2022/06/26 08:16:35;;;;;;;1.40;0.70;;;20.70;99.90;;;;;;21020230;28;20063;-75
2022/06/26 08:26:36;;;;;;;1.13;0.95;;;21.10;99.90;;;;;;21019176;28;20033;-75
2022/06/26 08:36:38;;;;;;;1.57;0.97;;;21.50;99.90;;;;;;21024280;28;20047;-75
2022/06/26 08:46:41;;;;;;;2.33;1.40;;;22.30;99.90;;;;;;21022897;28;20036;-76
2022/06/26 08:56:44;;;;;;;6.20;1.30;;;22.40;99.90;;;;;;21027760;28;20154;-76
2022/06/26 09:06:45;;;;;;;2.45;1.33;;;21.50;99.90;;;;;;21014471;28;20070;-76
2022/06/26 09:16:48;;;;;;;1.87;1.13;;;21.30;99.90;;;;;;20999503;28;20521;-76
2022/06/26 09:27:05;;;;;;;1.73;1.30;;;21.40;99.90;;;;;;21025486;28;20075;-75
2022/06/26 09:37:06;;;;;;;2.88;1.58;;;21.10;99.90;;;;;;21032403;28;20033;-76
2022/06/26 09:47:17;;;;;;;;;;;21.70;99.90;;;;;;21037952;28;20079;-76
2022/06/26 09:57:19;;;;;;;5.88;1.90;;;22.00;99.90;;;;;;21028512;28;20397;-76
2022/06/26 10:07:20;;;;;;;2.50;1.80;;;22.60;99.90;;;;;;21031687;28;20063;-76
2022/06/26 10:17:48;;;;;;;3.30;2.20;;;23.00;99.90;;;;;;21031846;28;20044;-76
2022/06/26 10:27:49;;;;;;;4.93;1.33;;;23.00;99.90;;;;;;21039599;28;20285;-75
2022/06/26 10:37:51;;;;;;;2.05;1.40;;;23.90;99.90;;;;;;21030255;28;20041;-76
2022/06/26 10:47:57;;;;;;;2.10;1.38;;;24.20;99.90;;;;;;21061014;28;20074;-76
2022/06/26 10:57:58;;;;;;;2.50;1.40;;;24.30;99.90;;;;;;21006203;28;20067;-76
2022/06/26 11:07:59;;;;;;;;;;;24.60;99.90;;;;;;21005270;28;20036;-75
2022/06/26 11:18:03;;;;;;;1.42;1.30;;;25.00;99.90;;;;;;21021521;28;19975;-77
2022/06/26 11:28:08;;;;;;;1.50;1.17;;;25.80;99.90;;;;;;21016907;28;20376;-77
2022/06/26 11:38:14;;;;;;;1.77;0.90;;;25.90;99.90;;;;;;21008539;22;20163;-77
2022/06/26 11:48:17;;;;;;;1.60;0.90;;;26.80;99.90;;;;;;20980395;28;20044;-77
2022/06/26 11:58:21;;;;;;;1.63;1.05;;;26.90;99.90;;;;;;21031810;28;20092;-76
2022/06/26 12:08:22;;;;;;;1.90;1.00;;;26.90;99.90;;;;;;21058462;28;20039;-76
2022/06/26 12:18:26;;;;;;;1.02;0.90;;;27.30;99.90;;;;;;21058514;28;20052;-76
2022/06/26 12:28:27;;;;;;;1.20;0.95;;;27.00;99.90;;;;;;20989904;28;20127;-77
2022/06/26 12:38:28;;;;;;;1.48;1.10;;;28.70;99.90;;;;;;21027684;28;20039;-76
2022/06/26 12:48:29;;;;;;;2.00;1.20;;;27.10;99.90;;;;;;21056518;28;20044;-77
2022/06/26 12:58:30;;;;;;;1.70;0.90;;;27.70;99.90;;;;;;20997925;28;20086;-76
2022/06/26 13:08:31;;;;;;;1.40;1.20;;;27.80;99.90;;;;;;21021865;28;20089;-76
2022/06/26 13:18:32;;;;;;;3.05;1.05;;;27.60;99.90;;;;;;21139467;28;20040;-77
2022/06/26 13:28:34;;;;;;;2.25;1.15;;;27.30;99.90;;;;;;21063571;28;20040;-76
2022/06/26 13:38:35;;;;;;;3.03;1.27;;;27.40;99.90;;;;;;21027456;28;20443;-76
2022/06/26 14:01:09;;;;;;;8.20;1.00;;;27.00;99.90;;;;;;20913929;22;20412;-78
2022/06/26 14:11:11;;;;;;;0.95;0.80;;;27.20;99.90;;;;;;20856934;28;20075;-77
2022/06/26 14:21:12;;;;;;;2.15;1.00;;;27.20;99.90;;;;;;20892634;28;20049;-76
2022/06/26 14:31:14;;;;;;;2.90;0.80;;;27.60;99.90;;;;;;20906207;28;20057;-76
2022/06/26 14:41:15;;;;;;;1.42;1.00;;;27.40;99.90;;;;;;20892979;28;20025;-77
2022/06/26 14:51:15;;;;;;;0.93;0.90;;;27.30;99.90;;;;;;20893350;28;20029;-76
2022/06/26 15:01:17;;;;;;;3.90;1.15;;;27.20;99.90;;;;;;20840819;28;20072;-76
2022/06/26 15:11:18;;;;;;;1.70;1.00;;;27.20;99.90;;;;;;20841444;28;20057;-79
2022/06/26 15:21:19;;;;;;;1.80;1.00;;;26.60;99.90;;;;;;20850492;28;20044;-79
2022/06/26 15:31:20;;;;;;;1.85;1.40;;;26.50;99.90;;;;;;20848113;28;20079;-79
2022/06/26 15:41:21;;;;;;;1.20;0.90;;;26.50;99.90;;;;;;20843629;28;20174;-79
2022/06/26 15:51:23;;;;;;;2.42;1.23;;;26.50;99.90;;;;;;20814451;28;20036;-77
2022/06/26 16:01:24;;;;;;;2.90;1.40;;;26.40;99.90;;;;;;20745328;28;20040;-77
2022/06/26 16:11:25;;;;;;;3.33;1.25;;;25.90;99.90;;;;;;20765236;28;20476;-78
2022/06/26 16:21:26;;;;;;;4.40;1.30;;;26.00;99.90;;;;;;20804084;28;20052;-78
2022/06/26 16:31:29;;;;;;;1.88;1.40;;;25.70;99.90;;;;;;20833930;28;20049;-78
2022/06/26 16:41:30;;;;;;;2.95;1.40;;;25.70;99.90;;;;;;20821429;28;20834;-78
2022/06/26 16:51:30;;;;;;;1.70;1.40;;;25.70;99.90;;;;;;20751117;28;20041;-78
2022/06/26 17:01:31;;;;;;;3.92;1.50;;;25.50;99.90;;;;;;20752922;28;20048;-81
2022/06/26 17:11:32;;;;;;;2.35;1.42;;;25.30;99.90;;;;;;20812568;28;20034;-82
2022/06/26 17:21:33;;;;;;;2.05;1.40;;;25.40;99.90;;;;;;20776450;28;20098;-82
2022/06/26 17:31:34;;;;;;;2.55;1.50;;;25.00;99.90;;;;;;20775600;28;20025;-81
2022/06/26 17:41:35;;;;;;;;;;;24.90;99.90;;;;;;20814111;28;20052;-80
2022/06/26 17:51:36;;;;;;;1.98;1.45;;;24.70;99.90;;;;;;20819364;28;19913;-80
2022/06/26 18:01:37;;;;;;;1.65;1.55;;;24.80;99.90;;;;;;20838225;28;20091;-81
2022/06/26 18:11:38;;;;;;;3.70;1.90;;;25.30;99.90;;;;;;20749142;28;20034;-80
2022/06/26 18:21:39;;;;;;;2.17;1.50;;;25.50;99.90;;;;;;20748096;28;20411;-81
2022/06/26 18:31:39;;;;;;;;;;;24.50;99.90;;;;;;20805730;28;20037;-81
2022/06/26 18:41:40;;;;;;;2.38;1.70;;;23.80;99.90;;;;;;20789019;28;19924;-80
2022/06/26 18:51:41;;;;;;;2.78;1.95;;;23.30;99.90;;;;;;20746380;28;20038;-80
2022/06/26 19:01:42;;;;;;;5.67;2.20;;;23.00;99.90;;;;;;20781114;28;20041;-80
2022/06/26 19:22:03;;;;;;;2.97;1.98;;;22.60;99.90;;;;;;20790643;28;20608;-79
2022/06/26 19:32:06;;;;;;;2.95;1.58;;;22.40;99.90;;;;;;20776492;28;20030;-79
2022/06/26 19:42:21;;;;;;;2.70;1.90;;;22.30;99.90;;;;;;20801202;28;20112;-80
2022/06/26 19:52:22;;;;;;;6.90;1.80;;;22.20;99.90;;;;;;20822692;28;20128;-80
2022/06/26 20:02:23;;;;;;;1.97;1.70;;;21.80;99.90;;;;;;20827605;23;20079;-79
2022/06/26 20:12:24;;;;;;;5.70;1.98;;;21.70;99.90;;;;;;20836586;28;20041;-78
2022/06/26 20:22:25;;;;;;;3.20;2.20;;;21.60;99.90;;;;;;20836975;28;20035;-79
2022/06/26 20:32:26;;;;;;;4.00;2.27;;;21.40;99.90;;;;;;20820826;28;20030;-79
2022/06/26 20:42:27;;;;;;;3.57;2.00;;;21.30;99.90;;;;;;20812962;28;20033;-80
2022/06/26 20:52:28;;;;;;;2.63;2.30;;;21.10;99.90;;;;;;20803268;28;20059;-79
2022/06/26 21:02:29;;;;;;;2.93;2.23;;;20.90;99.90;;;;;;20812416;28;20034;-79
2022/06/26 21:12:29;;;;;;;3.07;2.50;;;20.80;99.90;;;;;;20803372;28;20026;-78
2022/06/26 21:22:30;;;;;;;2.60;1.90;;;20.60;99.90;;;;;;20791010;28;20128;-78
2022/06/26 21:32:32;;;;;;;5.20;3.10;;;20.50;99.90;;;;;;20770460;28;20033;-77
2022/06/26 21:42:32;;;;;;;5.15;2.22;;;20.40;99.90;;;;;;20778943;28;20045;-81
2022/06/26 21:52:42;;;;;;;4.27;2.63;;;20.30;99.90;;;;;;20805334;28;20429;-81
2022/06/26 22:02:43;;;;;;;3.90;2.83;;;20.10;99.90;;;;;;20812724;28;20510;-80
2022/06/26 22:12:44;;;;;;;5.15;2.97;;;20.10;99.90;;;;;;20817151;28;20470;-80
2022/06/26 22:22:47;;;;;;;3.20;2.90;;;19.90;99.90;;;;;;20820304;28;20030;-81
2022/06/26 22:32:48;;;;;;;4.47;3.17;;;19.80;99.90;;;;;;20817555;28;20029;-81
2022/06/26 22:42:49;;;;;;;6.33;3.60;;;19.80;99.90;;;;;;20819253;28;20477;-79
2022/06/26 22:52:49;;;;;;;3.30;2.90;;;19.70;99.90;;;;;;20815897;28;20030;-78
2022/06/26 23:02:51;;;;;;;8.73;2.73;;;19.80;99.90;;;;;;20773380;28;20340;-79
2022/06/26 23:12:51;;;;;;;2.05;0.90;;;18.60;99.90;;;;;;20783326;28;20449;-80
2022/06/26 23:22:52;;;;;;;1.47;0.73;;;17.60;99.90;;;;;;20776072;28;20037;-80
2022/06/26 23:32:53;;;;;;;1.93;0.80;;;17.50;99.90;;;;;;20784600;28;20029;-79
2022/06/26 23:42:54;;;;;;;4.87;1.30;;;17.40;99.90;;;;;;20782264;28;20046;-81
2022/06/26 23:52:55;;;;;;;6.33;1.30;;;17.00;99.90;;;;;;20782424;28;20041;-81
